createdAt,value
2018-04-27T00:00:02.125Z,17.45
2018-04-27T00:02:28.581Z,18.90
2018-04-27T00:04:55.109Z,16.93
2018-04-27T00:07:21.586Z,20.47
2018-04-27T00:09:48.049Z,19.20
2018-04-27T00:12:15.246Z,17.37
2018-04-27T00:14:41.732Z,16.97
2018-04-27T00:17:08.179Z,24.90
2018-04-27T00:19:34.632Z,19.70
2018-04-27T00:22:01.861Z,17.97
2018-04-27T00:24:28.315Z,21.50
2018-04-27T00:26:54.770Z,19.77
2018-04-27T00:29:21.280Z,20.90
2018-04-27T00:31:47.757Z,18.20
2018-04-27T00:34:14.214Z,22.00
2018-04-27T00:36:40.684Z,18.52
2018-04-27T00:39:07.124Z,18.47
2018-04-27T00:41:33.592Z,16.10
2018-04-27T00:44:00.067Z,17.77
2018-04-27T00:46:26.534Z,16.00
2018-04-27T00:48:52.977Z,16.93
2018-04-27T00:51:19.437Z,18.90
2018-04-27T00:53:46.622Z,17.27
2018-04-27T00:56:13.102Z,17.62
2018-04-27T00:58:39.621Z,19.27
2018-04-27T01:01:06.822Z,16.17
2018-04-27T01:03:34.057Z,16.08
2018-04-27T01:06:00.545Z,15.80
2018-04-27T01:08:26.979Z,14.87
2018-04-27T01:10:53.426Z,16.23
2018-04-27T01:13:19.905Z,15.77
2018-04-27T01:15:46.369Z,13.98
2018-04-27T01:18:13.584Z,15.43
2018-04-27T01:20:40.101Z,15.20
2018-04-27T01:23:06.589Z,15.60
2018-04-27T01:25:33.071Z,16.63
2018-04-27T01:27:59.543Z,16.13
2018-04-27T01:30:25.984Z,16.33
2018-04-27T01:32:52.453Z,17.40
2018-04-27T01:35:19.680Z,16.27
2018-04-27T01:37:46.157Z,15.33
2018-04-27T01:40:12.604Z,20.73
2018-04-27T01:42:39.091Z,18.67
2018-04-27T01:45:05.575Z,16.77
2018-04-27T01:47:32.079Z,17.00
2018-04-27T01:49:59.340Z,18.07
2018-04-27T01:52:25.825Z,18.10
2018-04-27T01:54:52.302Z,17.37
2018-04-27T01:57:18.818Z,16.50
2018-04-27T01:59:45.273Z,16.73
2018-04-27T02:02:11.716Z,15.82
2018-04-27T02:04:38.210Z,19.85
2018-04-27T02:07:04.686Z,15.20
2018-04-27T02:09:31.156Z,16.53
2018-04-27T02:11:58.368Z,17.27
2018-04-27T02:14:24.829Z,14.90
2018-04-27T02:16:51.299Z,15.05
2018-04-27T02:19:18.496Z,15.00
2018-04-27T02:21:44.956Z,15.80
2018-04-27T02:24:11.436Z,16.27
2018-04-27T02:26:37.920Z,14.80
2018-04-27T02:29:04.380Z,16.60
2018-04-27T02:31:30.857Z,13.70
2018-04-27T02:33:57.318Z,15.60
2018-04-27T02:36:23.760Z,17.30
2018-04-27T02:38:50.208Z,15.70
2018-04-27T02:41:16.708Z,14.65
2018-04-27T02:43:43.178Z,19.98
2018-04-27T02:46:09.616Z,16.77
2018-04-27T02:48:36.087Z,17.33
2018-04-27T02:51:02.551Z,18.73
2018-04-27T02:53:29.072Z,16.70
2018-04-27T02:55:56.318Z,15.43
2018-04-27T02:58:22.788Z,14.63
2018-04-27T03:00:49.257Z,15.90
2018-04-27T03:03:15.733Z,24.58
2018-04-27T03:05:42.265Z,17.75
2018-04-27T03:08:08.724Z,18.62
2018-04-27T03:10:35.196Z,15.50
2018-04-27T03:13:01.658Z,15.90
2018-04-27T03:15:28.168Z,14.07
2018-04-27T03:17:54.640Z,14.33
2018-04-27T03:20:21.118Z,14.77
2018-04-27T03:22:48.328Z,14.32
2018-04-27T03:25:14.832Z,13.23
2018-04-27T03:27:41.353Z,15.43
2018-04-27T03:30:08.577Z,15.20
2018-04-27T03:32:35.077Z,13.48
2018-04-27T03:35:01.536Z,13.90
2018-04-27T03:37:27.993Z,13.07
2018-04-27T03:39:54.476Z,12.47
2018-04-27T03:42:20.919Z,13.70
2018-04-27T03:44:47.366Z,13.27
2018-04-27T03:47:13.856Z,12.93
2018-04-27T03:49:40.375Z,15.93
2018-04-27T03:52:06.849Z,12.82
2018-04-27T03:54:34.061Z,13.77
2018-04-27T03:57:00.564Z,13.45
2018-04-27T04:06:24.279Z,12.68
2018-04-27T04:08:51.467Z,13.82
2018-04-27T04:11:17.945Z,13.75
2018-04-27T04:13:44.429Z,14.70
2018-04-27T04:16:10.891Z,17.37
2018-04-27T04:18:37.404Z,16.48
2018-04-27T04:21:03.925Z,15.63
2018-04-27T04:23:32.050Z,14.50
2018-04-27T04:25:58.512Z,15.13
2018-04-27T04:28:24.972Z,16.75
2018-04-27T04:30:52.186Z,15.05
2018-04-27T04:33:18.647Z,14.27
2018-04-27T04:35:45.879Z,15.73
2018-04-27T04:38:12.329Z,15.13
2018-04-27T04:40:38.777Z,14.80
2018-04-27T04:43:05.263Z,17.60
2018-04-27T04:45:31.740Z,14.50
2018-04-27T04:47:58.201Z,14.32
2018-04-27T04:50:25.575Z,23.92
2018-04-27T04:52:52.808Z,14.52
2018-04-27T04:55:19.239Z,13.82
2018-04-27T04:57:45.816Z,13.47
2018-04-27T05:00:12.281Z,15.18
2018-04-27T05:02:38.765Z,18.17
2018-04-27T05:05:06.005Z,14.63
2018-04-27T05:07:32.480Z,14.10
2018-04-27T05:09:59.731Z,21.03
2018-04-27T05:12:26.954Z,13.80
2018-04-27T05:14:53.406Z,14.80
2018-04-27T05:17:19.900Z,15.03
2018-04-27T05:19:54.371Z,18.47
2018-04-27T05:22:20.833Z,12.63
2018-04-27T05:24:47.284Z,12.27
2018-04-27T05:27:13.788Z,15.13
2018-04-27T05:29:41.065Z,11.67
2018-04-27T05:32:08.445Z,11.47
2018-04-27T05:34:35.022Z,16.63
2018-04-27T05:37:01.539Z,11.57
2018-04-27T05:39:28.071Z,14.30
2018-04-27T05:41:54.611Z,11.07
2018-04-27T05:44:21.102Z,11.30
2018-04-27T05:46:48.379Z,11.90
2018-04-27T05:49:15.679Z,11.00
2018-04-27T05:51:42.219Z,10.73
2018-04-27T05:54:08.711Z,10.50
2018-04-27T05:56:36.027Z,10.30
2018-04-27T05:59:02.547Z,9.97
2018-04-27T06:01:29.041Z,9.87
2018-04-27T06:04:08.384Z,8.97
2018-04-27T06:06:35.591Z,9.13
2018-04-27T06:09:02.924Z,9.23
2018-04-27T06:11:29.501Z,9.93
2018-04-27T06:13:55.984Z,8.97
2018-04-27T06:16:23.198Z,8.90
2018-04-27T06:18:49.716Z,8.20
2018-04-27T06:21:16.250Z,13.90
2018-04-27T06:23:42.741Z,8.00
2018-04-27T06:26:10.049Z,12.10
2018-04-27T06:28:49.671Z,9.10
2018-04-27T06:31:16.205Z,12.30
2018-04-27T06:33:42.720Z,10.03
2018-04-27T06:36:09.192Z,9.60
2018-04-27T06:38:35.754Z,8.80
2018-04-27T06:41:02.311Z,9.73
2018-04-27T06:43:28.854Z,8.47
2018-04-27T06:45:55.426Z,7.70
2018-04-27T06:48:22.700Z,8.43
2018-04-27T06:50:49.249Z,8.57
2018-04-27T06:53:15.779Z,7.50
2018-04-27T06:55:42.300Z,7.20
2018-04-27T06:58:09.582Z,9.30
2018-04-27T07:00:36.091Z,10.33
2018-04-27T07:03:03.380Z,10.07
2018-04-27T07:05:29.916Z,8.57
2018-04-27T07:07:56.457Z,7.27
2018-04-27T07:10:22.993Z,12.43
2018-04-27T07:12:49.533Z,8.73
2018-04-27T07:15:16.103Z,26.37
2018-04-27T07:17:42.573Z,9.73
2018-04-27T07:20:09.039Z,9.03
2018-04-27T07:22:36.254Z,8.17
2018-04-27T07:25:02.740Z,7.60
2018-04-27T07:27:29.229Z,9.00
2018-04-27T07:29:55.785Z,6.93
2018-04-27T07:32:22.263Z,6.13
2018-04-27T07:34:48.749Z,9.20
2018-04-27T07:37:15.384Z,9.57
2018-04-27T07:39:41.894Z,9.30
2018-04-27T07:42:09.133Z,8.40
2018-04-27T07:44:35.702Z,6.30
2018-04-27T07:47:02.211Z,6.07
2018-04-27T07:49:28.720Z,7.27
2018-04-27T07:51:56.015Z,6.93
2018-04-27T07:54:22.534Z,10.13
2018-04-27T07:56:49.777Z,10.33
2018-04-27T07:59:17.051Z,10.87
2018-04-27T08:01:43.585Z,7.00
2018-04-27T08:04:10.861Z,5.57
2018-04-27T08:06:37.357Z,5.80
2018-04-27T08:09:03.884Z,6.13
2018-04-27T08:11:30.402Z,6.90
2018-04-27T08:13:56.943Z,9.30
2018-04-27T08:16:23.454Z,12.67
2018-04-27T08:18:49.985Z,6.00
2018-04-27T08:21:16.518Z,7.10
2018-04-27T08:23:43.805Z,7.10
2018-04-27T08:26:10.356Z,9.37
2018-04-27T08:28:36.920Z,8.50
2018-04-27T08:31:03.490Z,7.67
2018-04-27T08:33:30.777Z,7.90
2018-04-27T08:35:57.257Z,7.60
2018-04-27T08:38:23.716Z,6.50
2018-04-27T08:40:50.971Z,8.13
2018-04-27T08:43:18.263Z,8.43
2018-04-27T08:45:44.736Z,7.60
2018-04-27T08:48:11.257Z,8.23
2018-04-27T08:50:37.832Z,6.33
2018-04-27T08:53:04.385Z,6.90
2018-04-27T08:55:31.660Z,7.30
2018-04-27T08:57:59.003Z,7.50
2018-04-27T09:00:26.326Z,7.43
2018-04-27T09:02:52.853Z,10.00
2018-04-27T09:05:19.429Z,8.63
2018-04-27T09:07:45.927Z,6.07
2018-04-27T09:10:12.449Z,5.93
2018-04-27T09:12:38.947Z,5.40
2018-04-27T09:15:05.485Z,5.33
2018-04-27T09:17:31.956Z,5.30
2018-04-27T09:19:59.589Z,7.47
2018-04-27T09:22:26.090Z,7.37
2018-04-27T09:24:52.613Z,8.20
2018-04-27T09:27:19.154Z,6.97
2018-04-27T09:29:45.673Z,8.63
2018-04-27T09:32:12.504Z,6.80
2018-04-27T09:34:39.740Z,4.60
2018-04-27T09:37:06.261Z,6.00
2018-04-27T09:39:32.753Z,6.03
2018-04-27T09:42:00.003Z,4.73
2018-04-27T09:44:28.080Z,4.37
2018-04-27T09:46:55.330Z,5.00
2018-04-27T09:49:22.674Z,7.50
2018-04-27T09:51:49.188Z,6.37
2018-04-27T09:54:15.667Z,4.53
2018-04-27T09:56:42.945Z,6.23
2018-04-27T09:59:09.415Z,5.70
2018-04-27T10:01:35.916Z,3.60
2018-04-27T10:04:02.478Z,4.80
2018-04-27T10:06:28.980Z,8.10
2018-04-27T10:08:56.200Z,6.73
2018-04-27T10:11:22.696Z,5.70
2018-04-27T10:13:49.221Z,6.13
2018-04-27T10:16:16.440Z,5.40
2018-04-27T10:18:42.951Z,5.47
2018-04-27T10:21:09.519Z,8.30
2018-04-27T10:23:35.978Z,7.53
2018-04-27T10:26:03.237Z,5.73
2018-04-27T10:28:30.460Z,5.27
2018-04-27T10:30:57.042Z,5.37
2018-04-27T10:33:23.486Z,6.17
2018-04-27T10:35:50.736Z,5.97
2018-04-27T10:38:17.944Z,5.57
2018-04-27T10:40:44.433Z,4.67
2018-04-27T10:43:11.684Z,4.83
2018-04-27T10:45:38.913Z,4.50
2018-04-27T10:48:05.456Z,5.10
2018-04-27T10:50:31.988Z,6.83
2018-04-27T10:52:58.501Z,4.80
2018-04-27T10:55:25.059Z,5.30
2018-04-27T10:57:51.576Z,6.73
2018-04-27T11:00:18.120Z,6.63
2018-04-27T11:02:44.643Z,4.83
2018-04-27T11:05:11.200Z,7.60
2018-04-27T11:07:37.754Z,6.30
2018-04-27T11:10:04.313Z,4.03
2018-04-27T11:12:30.853Z,3.30
2018-04-27T11:14:57.363Z,6.17
2018-04-27T11:17:23.923Z,6.17
2018-04-27T11:19:50.450Z,7.67
2018-04-27T11:22:16.957Z,3.47
2018-04-27T11:24:43.518Z,5.87
2018-04-27T11:27:10.029Z,5.23
2018-04-27T11:29:36.496Z,4.33
2018-04-27T11:32:03.026Z,5.60
2018-04-27T11:34:29.517Z,5.30
2018-04-27T11:36:56.819Z,4.60
2018-04-27T11:39:23.314Z,4.60
2018-04-27T11:41:50.509Z,6.40
2018-04-27T11:44:17.021Z,8.77
2018-04-27T11:46:44.280Z,4.80
2018-04-27T11:49:11.544Z,6.57
2018-04-27T11:51:38.122Z,6.50
2018-04-27T11:54:04.686Z,4.50
2018-04-27T11:56:31.247Z,5.80
2018-04-27T11:58:58.522Z,7.27
2018-04-27T12:01:25.103Z,4.93
2018-04-27T12:03:51.617Z,4.97
2018-04-27T12:06:18.222Z,6.17
2018-04-27T12:08:45.512Z,13.63
2018-04-27T12:11:12.045Z,6.43
2018-04-27T12:13:38.596Z,8.17
2018-04-27T12:16:05.208Z,4.80
2018-04-27T12:18:32.449Z,4.00
2018-04-27T12:20:59.735Z,5.40
2018-04-27T12:23:26.184Z,4.50
2018-04-27T12:25:52.757Z,5.30
2018-04-27T12:28:19.259Z,5.97
2018-04-27T12:30:45.736Z,4.20
2018-04-27T12:33:12.184Z,4.77
2018-04-27T12:35:38.636Z,3.97
2018-04-27T12:38:05.924Z,4.70
2018-04-27T12:40:32.473Z,4.43
2018-04-27T12:42:59.033Z,8.97
2018-04-27T12:45:25.614Z,3.67
2018-04-27T12:47:52.917Z,4.07
2018-04-27T12:50:19.468Z,4.80
2018-04-27T12:52:46.025Z,6.40
2018-04-27T12:55:12.573Z,4.53
2018-04-27T12:57:39.090Z,4.33
2018-04-27T13:00:05.623Z,5.73
2018-04-27T13:02:32.160Z,8.20
2018-04-27T13:04:58.640Z,4.17
2018-04-27T13:07:25.184Z,7.33
2018-04-27T13:09:51.716Z,4.83
2018-04-27T13:12:18.325Z,5.90
2018-04-27T13:14:44.874Z,4.53
2018-04-27T13:17:11.385Z,4.43
2018-04-27T13:19:37.941Z,4.53
2018-04-27T13:22:04.442Z,7.27
2018-04-27T13:24:30.900Z,10.87
2018-04-27T13:26:57.391Z,6.60
2018-04-27T13:29:23.903Z,5.47
2018-04-27T13:31:51.104Z,9.50
2018-04-27T13:34:18.287Z,6.97
2018-04-27T13:36:44.782Z,4.90
2018-04-27T13:39:29.508Z,6.80
2018-04-27T13:41:56.074Z,3.77
2018-04-27T13:44:22.645Z,4.70
2018-04-27T13:46:57.434Z,4.70
2018-04-27T13:49:23.939Z,6.87
2018-04-27T13:51:50.544Z,8.40
2018-04-27T13:54:17.150Z,7.70
2018-04-27T13:56:43.765Z,3.90
2018-04-27T13:59:10.332Z,6.63
2018-04-27T14:01:36.893Z,5.77
2018-04-27T14:04:03.472Z,4.13
2018-04-27T14:06:30.052Z,5.97
2018-04-27T14:08:56.594Z,4.00
2018-04-27T14:11:23.116Z,5.73
2018-04-27T14:13:49.690Z,4.20
2018-04-27T14:16:16.258Z,5.27
2018-04-27T14:18:43.553Z,4.77
2018-04-27T14:21:10.097Z,7.07
2018-04-27T14:23:36.596Z,7.20
2018-04-27T14:26:03.835Z,5.10
2018-04-27T14:28:30.281Z,5.53
2018-04-27T14:30:57.594Z,4.23
2018-04-27T14:33:24.048Z,7.23
2018-04-27T14:35:50.525Z,4.20
2018-04-27T14:38:17.828Z,4.17
2018-04-27T14:40:44.304Z,5.30
2018-04-27T14:43:10.773Z,4.47
2018-04-27T14:45:37.233Z,6.10
2018-04-27T14:48:03.760Z,3.50
2018-04-27T14:50:30.286Z,5.63
2018-04-27T14:52:56.779Z,7.17
2018-04-27T14:55:23.309Z,6.93
2018-04-27T14:57:49.876Z,6.77
2018-04-27T15:00:17.261Z,6.43
2018-04-27T15:02:43.837Z,5.83
2018-04-27T15:05:10.332Z,8.07
2018-04-27T15:07:37.553Z,4.90
2018-04-27T15:10:04.080Z,5.00
2018-04-27T15:12:30.635Z,4.40
2018-04-27T15:14:57.219Z,4.40
2018-04-27T15:17:23.718Z,4.07
2018-04-27T15:19:50.207Z,4.80
2018-04-27T15:22:16.703Z,5.20
2018-04-27T15:24:43.163Z,4.53
2018-04-27T15:27:09.675Z,6.37
2018-04-27T15:29:36.236Z,6.00
2018-04-27T15:32:03.470Z,10.73
2018-04-27T15:34:29.915Z,4.80
2018-04-27T15:36:56.507Z,5.27
2018-04-27T15:39:23.053Z,4.40
2018-04-27T15:41:49.580Z,4.70
2018-04-27T15:44:16.118Z,5.50
2018-04-27T15:46:42.677Z,6.03
2018-04-27T15:49:09.208Z,4.73
2018-04-27T15:51:35.790Z,6.83
2018-04-27T15:54:02.357Z,4.27
2018-04-27T15:56:28.864Z,4.03
2018-04-27T15:58:55.472Z,7.40
2018-04-27T16:01:22.061Z,6.80
2018-04-27T16:03:49.432Z,4.73
2018-04-27T16:06:16.843Z,5.73
2018-04-27T16:08:43.443Z,3.60
2018-04-27T16:11:10.007Z,4.87
2018-04-27T16:26:57.162Z,4.33
2018-04-27T16:29:23.675Z,5.93
2018-04-27T16:31:50.282Z,5.50
2018-04-27T16:34:17.584Z,4.40
2018-04-27T16:36:44.119Z,4.00
2018-04-27T16:39:10.665Z,5.63
2018-04-27T16:41:37.303Z,4.37
2018-04-27T16:44:03.814Z,8.37
2018-04-27T16:46:30.290Z,5.20
2018-04-27T16:48:56.820Z,5.43
2018-04-27T16:51:23.291Z,5.23
2018-04-27T16:53:49.804Z,7.37
2018-04-27T16:56:16.332Z,4.40
2018-04-27T16:58:42.897Z,5.40
2018-04-27T17:01:09.460Z,6.40
2018-04-27T17:03:36.070Z,5.50
2018-04-27T17:06:02.551Z,5.43
2018-04-27T17:08:29.834Z,4.50
2018-04-27T17:10:56.391Z,5.20
2018-04-27T17:13:22.966Z,8.97
2018-04-27T17:15:49.513Z,10.43
2018-04-27T17:18:16.049Z,8.47
2018-04-27T17:20:42.563Z,4.23
2018-04-27T17:23:09.080Z,4.57
2018-04-27T17:25:35.647Z,5.23
2018-04-27T17:28:02.194Z,5.93
2018-04-27T17:30:28.724Z,7.00
2018-04-27T17:32:55.319Z,4.83
2018-04-27T17:35:21.960Z,7.20
2018-04-27T17:37:48.445Z,7.60
2018-04-27T17:40:15.053Z,7.10
2018-04-27T17:42:41.614Z,7.90
2018-04-27T17:45:08.145Z,6.23
2018-04-27T17:47:34.748Z,10.43
2018-04-27T17:50:02.070Z,11.10
2018-04-27T17:52:28.724Z,4.90
2018-04-27T17:54:55.295Z,8.87
2018-04-27T17:57:22.543Z,9.43
2018-04-27T17:59:49.837Z,5.70
2018-04-27T18:02:16.369Z,7.07
2018-04-27T18:04:42.915Z,5.60
2018-04-27T18:07:09.410Z,7.20
2018-04-27T18:09:36.645Z,6.40
2018-04-27T18:12:03.262Z,10.07
2018-04-27T18:14:29.832Z,9.07
2018-04-27T18:16:56.388Z,7.27
2018-04-27T18:19:23.687Z,5.97
2018-04-27T18:21:50.297Z,13.97
2018-04-27T18:24:17.684Z,7.57
2018-04-27T18:26:44.224Z,8.80
2018-04-27T18:29:10.804Z,8.37
2018-04-27T18:31:37.295Z,8.87
2018-04-27T18:34:03.873Z,9.17
2018-04-27T18:36:30.423Z,7.50
2018-04-27T18:38:56.979Z,9.27
2018-04-27T18:41:23.505Z,7.03
2018-04-27T18:43:50.069Z,7.37
2018-04-27T18:46:17.372Z,8.03
2018-04-27T18:48:43.931Z,9.50
2018-04-27T18:51:13.611Z,7.27
2018-04-27T18:53:40.207Z,6.37
2018-04-27T18:56:06.861Z,7.07
2018-04-27T18:58:34.217Z,11.53
2018-04-27T19:01:01.645Z,6.43
2018-04-27T19:03:28.225Z,7.63
2018-04-27T19:05:55.537Z,8.10
2018-04-27T19:08:23.276Z,8.73
2018-04-27T19:10:49.899Z,7.47
2018-04-27T19:13:18.257Z,9.47
2018-04-27T19:15:44.862Z,9.87
2018-04-27T19:18:19.598Z,9.40
2018-04-27T19:20:46.206Z,7.70
2018-04-27T19:23:13.700Z,6.47
2018-04-27T19:25:41.037Z,10.00
2018-04-27T19:28:07.636Z,6.77
2018-04-27T19:30:34.257Z,11.20
2018-04-27T19:33:00.839Z,13.23
2018-04-27T19:35:28.187Z,10.37
2018-04-27T19:37:55.512Z,7.47
2018-04-27T19:40:22.085Z,8.73
2018-04-27T19:42:49.417Z,11.73
2018-04-27T19:45:15.991Z,10.50
2018-04-27T19:47:43.338Z,9.13
2018-04-27T19:50:10.701Z,8.80
2018-04-27T19:52:37.987Z,8.03
2018-04-27T19:55:04.588Z,9.00
2018-04-27T19:57:31.174Z,12.10
2018-04-27T19:59:57.712Z,8.10
2018-04-27T20:02:24.293Z,8.43
2018-04-27T20:04:50.898Z,12.50
2018-04-27T20:07:18.165Z,9.50
2018-04-27T20:09:44.789Z,9.27
2018-04-27T20:12:12.065Z,12.10
2018-04-27T20:14:38.656Z,8.80
2018-04-27T20:17:05.936Z,8.80
2018-04-27T20:19:37.365Z,11.53
2018-04-27T20:22:15.711Z,9.07
2018-04-27T20:24:42.254Z,10.90
2018-04-27T20:27:08.825Z,9.43
2018-04-27T20:29:35.418Z,8.30
2018-04-27T20:32:02.729Z,8.87
2018-04-27T20:34:29.281Z,9.40
2018-04-27T20:36:55.838Z,10.10
2018-04-27T20:39:22.393Z,14.07
2018-04-27T20:41:49.677Z,11.30
2018-04-27T20:44:16.262Z,10.10
2018-04-27T20:46:42.783Z,9.60
2018-04-27T20:49:09.359Z,9.47
2018-04-27T20:51:36.676Z,9.53
2018-04-27T20:54:03.249Z,10.30
2018-04-27T21:09:55.048Z,11.40
2018-04-27T21:12:27.321Z,14.43
2018-04-27T21:14:53.903Z,14.20
2018-04-27T21:17:20.489Z,12.17
2018-04-27T21:19:47.069Z,19.13
2018-04-27T21:22:13.731Z,10.10
2018-04-27T21:24:41.023Z,11.67
2018-04-27T21:27:07.638Z,12.03
2018-04-27T21:29:35.869Z,13.70
2018-04-27T21:32:02.398Z,10.73
2018-04-27T21:34:28.963Z,14.03
2018-04-27T21:36:55.614Z,9.77
2018-04-27T21:39:28.921Z,12.77
2018-04-27T21:41:56.227Z,11.03
2018-04-27T21:44:24.756Z,10.23
2018-04-27T21:46:51.336Z,11.73
2018-04-27T21:49:18.856Z,12.83
2018-04-27T21:51:48.245Z,9.57
2018-04-27T21:54:17.809Z,12.20
2018-04-27T21:56:53.892Z,11.03
2018-04-27T21:59:25.176Z,15.93
2018-04-27T22:01:51.728Z,11.83
2018-04-27T22:04:20.159Z,12.47
2018-04-27T22:06:46.726Z,13.30
2018-04-27T22:09:13.297Z,10.40
2018-04-27T22:11:42.486Z,10.97
2018-04-27T22:14:12.011Z,10.80
2018-04-27T22:16:39.406Z,12.70
2018-04-27T22:19:06.780Z,10.33
2018-04-27T22:21:33.357Z,11.27
2018-04-27T22:26:59.962Z,11.43
2018-04-27T22:29:28.121Z,11.17
2018-04-27T22:31:54.655Z,13.90
2018-04-27T22:34:26.901Z,9.07
2018-04-27T22:36:53.481Z,11.25
2018-04-27T22:39:32.701Z,10.63
2018-04-27T22:42:04.065Z,10.80
2018-04-27T22:44:42.157Z,11.75
2018-04-27T22:47:09.458Z,11.27
2018-04-27T22:49:36.737Z,11.27
2018-04-27T22:52:03.309Z,12.07
2018-04-27T22:54:38.573Z,10.20
2018-04-27T23:00:17.249Z,12.60
2018-04-27T23:02:44.506Z,11.70
2018-04-27T23:05:13.875Z,10.90
2018-04-27T23:07:40.459Z,9.60
2018-04-27T23:10:06.998Z,10.80
2018-04-27T23:12:34.565Z,11.70
2018-04-27T23:15:04.085Z,14.13
2018-04-27T23:17:30.673Z,11.35
2018-04-27T23:19:57.197Z,10.87
2018-04-27T23:22:32.912Z,12.40
2018-04-27T23:25:06.204Z,12.13
2018-04-27T23:27:36.682Z,15.95
2018-04-27T23:30:03.241Z,12.00
2018-04-27T23:32:29.796Z,11.37
2018-04-27T23:34:57.100Z,14.40
2018-04-27T23:37:23.618Z,10.40
2018-04-27T23:39:51.079Z,13.20
2018-04-27T23:42:17.677Z,11.03
2018-04-27T23:44:44.231Z,15.02
2018-04-27T23:47:11.483Z,10.15
2018-04-27T23:49:38.781Z,12.30
2018-04-27T23:52:05.341Z,11.05
2018-04-27T23:54:31.912Z,10.50
2018-04-27T23:56:58.496Z,11.02
2018-04-27T23:59:25.044Z,11.05
